sensor_id;sensor_type;location;lat;lon;timestamp;P1;durP1;ratioP1;P2;durP2;ratioP2
69565;SDS011;56777;55.930;37.524;2024-03-17T00:01:42;111.30;;;14.75;;
69565;SDS011;56777;55.930;37.524;2024-03-17T00:04:07;110.57;;;15.02;;
69565;SDS011;56777;55.930;37.524;2024-03-17T00:06:34;128.00;;;16.48;;
69565;SDS011;56777;55.930;37.524;2024-03-17T00:08:59;113.97;;;17.30;;
69565;SDS011;56777;55.930;37.524;2024-03-17T00:11:31;110.65;;;14.35;;
69565;SDS011;56777;55.930;37.524;2024-03-17T00:13:57;103.43;;;15.13;;
69565;SDS011;56777;55.930;37.524;2024-03-17T00:16:23;99.45;;;14.35;;
69565;SDS011;56777;55.930;37.524;2024-03-17T00:18:48;109.47;;;14.70;;
69565;SDS011;56777;55.930;37.524;2024-03-17T00:21:14;131.63;;;15.48;;
69565;SDS011;56777;55.930;37.524;2024-03-17T00:23:40;113.88;;;17.67;;
69565;SDS011;56777;55.930;37.524;2024-03-17T00:26:05;106.63;;;17.77;;
69565;SDS011;56777;55.930;37.524;2024-03-17T00:28:31;109.78;;;16.05;;
69565;SDS011;56777;55.930;37.524;2024-03-17T00:30:57;98.55;;;15.35;;
69565;SDS011;56777;55.930;37.524;2024-03-17T00:33:22;86.13;;;12.07;;
69565;SDS011;56777;55.930;37.524;2024-03-17T00:35:49;102.10;;;15.50;;
69565;SDS011;56777;55.930;37.524;2024-03-17T00:38:15;92.90;;;14.18;;
69565;SDS011;56777;55.930;37.524;2024-03-17T00:40:40;96.50;;;12.52;;
69565;SDS011;56777;55.930;37.524;2024-03-17T00:43:06;95.40;;;12.82;;
69565;SDS011;56777;55.930;37.524;2024-03-17T00:45:32;103.68;;;13.80;;
69565;SDS011;56777;55.930;37.524;2024-03-17T00:47:58;90.38;;;13.50;;
69565;SDS011;56777;55.930;37.524;2024-03-17T00:50:24;97.55;;;14.43;;
69565;SDS011;56777;55.930;37.524;2024-03-17T00:52:49;103.07;;;13.45;;
69565;SDS011;56777;55.930;37.524;2024-03-17T00:55:15;105.80;;;15.30;;
69565;SDS011;56777;55.930;37.524;2024-03-17T00:57:41;78.95;;;12.13;;
69565;SDS011;56777;55.930;37.524;2024-03-17T01:00:07;93.95;;;12.73;;
69565;SDS011;56777;55.930;37.524;2024-03-17T01:02:36;91.53;;;13.40;;
69565;SDS011;56777;55.930;37.524;2024-03-17T01:05:02;110.03;;;12.23;;
69565;SDS011;56777;55.930;37.524;2024-03-17T01:07:30;98.68;;;12.88;;
69565;SDS011;56777;55.930;37.524;2024-03-17T01:09:57;110.90;;;15.40;;
69565;SDS011;56777;55.930;37.524;2024-03-17T01:12:22;114.35;;;14.63;;
69565;SDS011;56777;55.930;37.524;2024-03-17T01:14:48;116.35;;;16.05;;
69565;SDS011;56777;55.930;37.524;2024-03-17T01:17:13;126.03;;;15.88;;
69565;SDS011;56777;55.930;37.524;2024-03-17T01:19:39;127.32;;;14.85;;
69565;SDS011;56777;55.930;37.524;2024-03-17T01:22:05;137.27;;;14.85;;
69565;SDS011;56777;55.930;37.524;2024-03-17T01:24:30;115.45;;;13.88;;
69565;SDS011;56777;55.930;37.524;2024-03-17T01:26:59;108.65;;;13.88;;
69565;SDS011;56777;55.930;37.524;2024-03-17T01:29:25;91.15;;;12.60;;
69565;SDS011;56777;55.930;37.524;2024-03-17T01:31:51;101.63;;;11.95;;
69565;SDS011;56777;55.930;37.524;2024-03-17T01:34:20;93.68;;;14.00;;
69565;SDS011;56777;55.930;37.524;2024-03-17T01:36:45;99.93;;;12.30;;
69565;SDS011;56777;55.930;37.524;2024-03-17T01:39:11;101.18;;;11.38;;
69565;SDS011;56777;55.930;37.524;2024-03-17T01:41:36;107.30;;;13.32;;
69565;SDS011;56777;55.930;37.524;2024-03-17T01:44:02;99.35;;;11.38;;
69565;SDS011;56777;55.930;37.524;2024-03-17T01:46:28;91.47;;;12.55;;
69565;SDS011;56777;55.930;37.524;2024-03-17T01:48:54;86.65;;;10.98;;
69565;SDS011;56777;55.930;37.524;2024-03-17T01:51:20;102.82;;;10.65;;
69565;SDS011;56777;55.930;37.524;2024-03-17T01:53:47;103.07;;;12.57;;
69565;SDS011;56777;55.930;37.524;2024-03-17T01:56:13;88.18;;;11.20;;
69565;SDS011;56777;55.930;37.524;2024-03-17T01:58:44;97.78;;;12.15;;
69565;SDS011;56777;55.930;37.524;2024-03-17T02:01:11;100.10;;;13.07;;
69565;SDS011;56777;55.930;37.524;2024-03-17T02:03:39;97.63;;;12.50;;
69565;SDS011;56777;55.930;37.524;2024-03-17T02:06:06;86.82;;;11.63;;
69565;SDS011;56777;55.930;37.524;2024-03-17T02:08:47;99.38;;;12.70;;
69565;SDS011;56777;55.930;37.524;2024-03-17T02:13:56;91.68;;;11.80;;
69565;SDS011;56777;55.930;37.524;2024-03-17T02:16:22;94.05;;;11.00;;
69565;SDS011;56777;55.930;37.524;2024-03-17T02:18:48;93.88;;;11.48;;
69565;SDS011;56777;55.930;37.524;2024-03-17T02:21:15;93.78;;;12.32;;
69565;SDS011;56777;55.930;37.524;2024-03-17T02:23:44;98.70;;;13.13;;
69565;SDS011;56777;55.930;37.524;2024-03-17T02:26:10;96.38;;;11.48;;
69565;SDS011;56777;55.930;37.524;2024-03-17T02:28:42;103.97;;;12.65;;
69565;SDS011;56777;55.930;37.524;2024-03-17T02:31:10;106.80;;;12.52;;
69565;SDS011;56777;55.930;37.524;2024-03-17T02:33:36;93.88;;;11.43;;
69565;SDS011;56777;55.930;37.524;2024-03-17T02:36:03;100.50;;;12.77;;
69565;SDS011;56777;55.930;37.524;2024-03-17T02:38:32;96.95;;;15.25;;
69565;SDS011;56777;55.930;37.524;2024-03-17T02:41:17;109.63;;;13.77;;
69565;SDS011;56777;55.930;37.524;2024-03-17T02:43:43;109.88;;;14.00;;
69565;SDS011;56777;55.930;37.524;2024-03-17T02:46:10;118.88;;;14.63;;
69565;SDS011;56777;55.930;37.524;2024-03-17T02:48:38;92.78;;;15.05;;
69565;SDS011;56777;55.930;37.524;2024-03-17T02:51:10;99.45;;;14.25;;
69565;SDS011;56777;55.930;37.524;2024-03-17T02:53:37;97.80;;;13.20;;
69565;SDS011;56777;55.930;37.524;2024-03-17T02:56:03;101.10;;;13.57;;
69565;SDS011;56777;55.930;37.524;2024-03-17T02:58:28;93.30;;;12.38;;
69565;SDS011;56777;55.930;37.524;2024-03-17T03:00:54;107.40;;;14.93;;
69565;SDS011;56777;55.930;37.524;2024-03-17T03:03:19;115.50;;;15.32;;
69565;SDS011;56777;55.930;37.524;2024-03-17T03:05:45;107.65;;;15.60;;
69565;SDS011;56777;55.930;37.524;2024-03-17T03:08:11;103.50;;;14.38;;
69565;SDS011;56777;55.930;37.524;2024-03-17T03:10:36;88.45;;;14.05;;
69565;SDS011;56777;55.930;37.524;2024-03-17T03:13:02;73.28;;;13.55;;
69565;SDS011;56777;55.930;37.524;2024-03-17T03:15:30;94.93;;;15.50;;
69565;SDS011;56777;55.930;37.524;2024-03-17T03:17:57;98.05;;;16.70;;
69565;SDS011;56777;55.930;37.524;2024-03-17T03:20:23;105.93;;;19.10;;
69565;SDS011;56777;55.930;37.524;2024-03-17T03:22:48;100.25;;;16.77;;
69565;SDS011;56777;55.930;37.524;2024-03-17T03:25:14;101.70;;;15.05;;
69565;SDS011;56777;55.930;37.524;2024-03-17T03:27:39;103.55;;;18.13;;
69565;SDS011;56777;55.930;37.524;2024-03-17T03:30:05;104.93;;;17.40;;
69565;SDS011;56777;55.930;37.524;2024-03-17T03:32:33;88.53;;;15.18;;
69565;SDS011;56777;55.930;37.524;2024-03-17T03:34:59;113.82;;;16.77;;
69565;SDS011;56777;55.930;37.524;2024-03-17T03:37:24;98.90;;;17.20;;
69565;SDS011;56777;55.930;37.524;2024-03-17T03:39:51;95.13;;;15.35;;
69565;SDS011;56777;55.930;37.524;2024-03-17T03:42:16;115.30;;;16.17;;
69565;SDS011;56777;55.930;37.524;2024-03-17T03:44:42;118.40;;;15.48;;
69565;SDS011;56777;55.930;37.524;2024-03-17T03:47:08;99.47;;;13.07;;
69565;SDS011;56777;55.930;37.524;2024-03-17T03:49:34;91.18;;;13.75;;
69565;SDS011;56777;55.930;37.524;2024-03-17T03:51:59;88.95;;;13.13;;
69565;SDS011;56777;55.930;37.524;2024-03-17T03:54:25;102.65;;;14.52;;
69565;SDS011;56777;55.930;37.524;2024-03-17T03:56:50;100.65;;;14.48;;
69565;SDS011;56777;55.930;37.524;2024-03-17T03:59:16;87.85;;;14.43;;
69565;SDS011;56777;55.930;37.524;2024-03-17T04:01:41;88.55;;;16.73;;
69565;SDS011;56777;55.930;37.524;2024-03-17T04:04:07;92.60;;;14.52;;
69565;SDS011;56777;55.930;37.524;2024-03-17T04:06:32;86.80;;;13.73;;
69565;SDS011;56777;55.930;37.524;2024-03-17T04:08:58;88.80;;;13.73;;
69565;SDS011;56777;55.930;37.524;2024-03-17T04:11:23;83.30;;;13.27;;
69565;SDS011;56777;55.930;37.524;2024-03-17T04:13:49;94.65;;;12.18;;
69565;SDS011;56777;55.930;37.524;2024-03-17T04:16:15;90.03;;;14.70;;
69565;SDS011;56777;55.930;37.524;2024-03-17T04:18:40;87.68;;;13.00;;
69565;SDS011;56777;55.930;37.524;2024-03-17T04:21:06;84.25;;;12.00;;
69565;SDS011;56777;55.930;37.524;2024-03-17T04:23:32;82.40;;;13.32;;
69565;SDS011;56777;55.930;37.524;2024-03-17T04:25:58;94.15;;;13.68;;
69565;SDS011;56777;55.930;37.524;2024-03-17T04:28:24;104.07;;;17.48;;
69565;SDS011;56777;55.930;37.524;2024-03-17T04:30:50;96.55;;;12.75;;
69565;SDS011;56777;55.930;37.524;2024-03-17T04:33:15;73.97;;;11.73;;
69565;SDS011;56777;55.930;37.524;2024-03-17T04:35:44;77.03;;;14.20;;
69565;SDS011;56777;55.930;37.524;2024-03-17T04:38:09;78.68;;;11.55;;
69565;SDS011;56777;55.930;37.524;2024-03-17T04:40:39;75.25;;;11.63;;
69565;SDS011;56777;55.930;37.524;2024-03-17T04:43:08;86.07;;;12.57;;
69565;SDS011;56777;55.930;37.524;2024-03-17T04:45:34;77.20;;;12.18;;
69565;SDS011;56777;55.930;37.524;2024-03-17T04:48:00;94.15;;;11.45;;
69565;SDS011;56777;55.930;37.524;2024-03-17T04:50:25;85.65;;;11.85;;
69565;SDS011;56777;55.930;37.524;2024-03-17T04:52:51;80.28;;;11.65;;
69565;SDS011;56777;55.930;37.524;2024-03-17T04:55:17;86.40;;;11.63;;
69565;SDS011;56777;55.930;37.524;2024-03-17T04:57:44;79.60;;;13.52;;
69565;SDS011;56777;55.930;37.524;2024-03-17T05:00:12;101.45;;;12.32;;
69565;SDS011;56777;55.930;37.524;2024-03-17T05:02:39;80.22;;;11.52;;
69565;SDS011;56777;55.930;37.524;2024-03-17T05:05:05;92.05;;;12.73;;
69565;SDS011;56777;55.930;37.524;2024-03-17T05:07:33;84.10;;;12.10;;
69565;SDS011;56777;55.930;37.524;2024-03-17T05:09:59;79.82;;;11.27;;
69565;SDS011;56777;55.930;37.524;2024-03-17T05:12:25;81.15;;;11.07;;
69565;SDS011;56777;55.930;37.524;2024-03-17T05:14:50;79.55;;;12.50;;
69565;SDS011;56777;55.930;37.524;2024-03-17T05:17:16;86.20;;;12.95;;
69565;SDS011;56777;55.930;37.524;2024-03-17T05:19:42;80.63;;;11.57;;
69565;SDS011;56777;55.930;37.524;2024-03-17T05:22:07;92.45;;;12.45;;
69565;SDS011;56777;55.930;37.524;2024-03-17T05:24:33;71.95;;;11.95;;
69565;SDS011;56777;55.930;37.524;2024-03-17T05:26:58;71.78;;;12.43;;
69565;SDS011;56777;55.930;37.524;2024-03-17T05:29:24;74.68;;;11.50;;
69565;SDS011;56777;55.930;37.524;2024-03-17T05:31:49;79.38;;;10.07;;
69565;SDS011;56777;55.930;37.524;2024-03-17T05:34:15;79.07;;;10.90;;
69565;SDS011;56777;55.930;37.524;2024-03-17T05:36:41;87.13;;;11.57;;
69565;SDS011;56777;55.930;37.524;2024-03-17T05:39:06;83.68;;;11.43;;
69565;SDS011;56777;55.930;37.524;2024-03-17T05:41:32;78.18;;;11.90;;
69565;SDS011;56777;55.930;37.524;2024-03-17T05:43:57;76.88;;;11.18;;
69565;SDS011;56777;55.930;37.524;2024-03-17T05:46:23;78.47;;;11.32;;
69565;SDS011;56777;55.930;37.524;2024-03-17T05:48:53;81.00;;;10.18;;
69565;SDS011;56777;55.930;37.524;2024-03-17T05:51:19;65.20;;;8.90;;
69565;SDS011;56777;55.930;37.524;2024-03-17T05:53:44;80.72;;;10.90;;
69565;SDS011;56777;55.930;37.524;2024-03-17T05:56:10;81.13;;;11.20;;
69565;SDS011;56777;55.930;37.524;2024-03-17T05:58:40;85.00;;;11.63;;
69565;SDS011;56777;55.930;37.524;2024-03-17T06:01:06;71.40;;;8.95;;
69565;SDS011;56777;55.930;37.524;2024-03-17T06:03:33;72.53;;;9.95;;
69565;SDS011;56777;55.930;37.524;2024-03-17T06:06:01;73.10;;;9.50;;
69565;SDS011;56777;55.930;37.524;2024-03-17T06:08:28;81.65;;;10.50;;
69565;SDS011;56777;55.930;37.524;2024-03-17T06:10:54;74.65;;;12.40;;
69565;SDS011;56777;55.930;37.524;2024-03-17T06:13:22;69.78;;;9.88;;
69565;SDS011;56777;55.930;37.524;2024-03-17T06:15:48;71.03;;;10.02;;
69565;SDS011;56777;55.930;37.524;2024-03-17T06:18:14;79.95;;;10.27;;
69565;SDS011;56777;55.930;37.524;2024-03-17T06:20:40;69.15;;;11.13;;
69565;SDS011;56777;55.930;37.524;2024-03-17T06:23:09;78.60;;;11.27;;
69565;SDS011;56777;55.930;37.524;2024-03-17T06:25:42;74.32;;;10.93;;
69565;SDS011;56777;55.930;37.524;2024-03-17T06:28:09;76.50;;;11.93;;
69565;SDS011;56777;55.930;37.524;2024-03-17T06:30:42;90.22;;;10.27;;
69565;SDS011;56777;55.930;37.524;2024-03-17T06:33:11;75.57;;;10.70;;
69565;SDS011;56777;55.930;37.524;2024-03-17T06:35:38;73.80;;;11.32;;
69565;SDS011;56777;55.930;37.524;2024-03-17T06:38:04;93.20;;;12.52;;
69565;SDS011;56777;55.930;37.524;2024-03-17T06:40:29;69.82;;;11.35;;
69565;SDS011;56777;55.930;37.524;2024-03-17T06:42:55;78.45;;;10.10;;
69565;SDS011;56777;55.930;37.524;2024-03-17T06:45:22;67.85;;;11.57;;
69565;SDS011;56777;55.930;37.524;2024-03-17T06:47:47;74.72;;;11.73;;
69565;SDS011;56777;55.930;37.524;2024-03-17T06:50:13;83.30;;;10.95;;
69565;SDS011;56777;55.930;37.524;2024-03-17T06:52:39;87.75;;;12.40;;
69565;SDS011;56777;55.930;37.524;2024-03-17T06:55:05;66.13;;;10.07;;
69565;SDS011;56777;55.930;37.524;2024-03-17T06:57:31;68.80;;;11.38;;
69565;SDS011;56777;55.930;37.524;2024-03-17T06:59:59;72.50;;;9.98;;
69565;SDS011;56777;55.930;37.524;2024-03-17T07:02:24;76.43;;;9.98;;
69565;SDS011;56777;55.930;37.524;2024-03-17T07:04:50;73.32;;;10.38;;
69565;SDS011;56777;55.930;37.524;2024-03-17T07:07:15;83.30;;;11.32;;
69565;SDS011;56777;55.930;37.524;2024-03-17T07:09:41;80.43;;;10.90;;
69565;SDS011;56777;55.930;37.524;2024-03-17T07:12:08;81.72;;;11.57;;
69565;SDS011;56777;55.930;37.524;2024-03-17T07:14:34;85.90;;;12.00;;
69565;SDS011;56777;55.930;37.524;2024-03-17T07:17:00;76.07;;;10.07;;
69565;SDS011;56777;55.930;37.524;2024-03-17T07:19:26;79.22;;;11.10;;
69565;SDS011;56777;55.930;37.524;2024-03-17T07:21:51;83.28;;;12.68;;
69565;SDS011;56777;55.930;37.524;2024-03-17T07:24:17;81.57;;;11.93;;
69565;SDS011;56777;55.930;37.524;2024-03-17T07:26:43;71.03;;;11.20;;
69565;SDS011;56777;55.930;37.524;2024-03-17T07:29:08;78.00;;;9.05;;
69565;SDS011;56777;55.930;37.524;2024-03-17T07:31:34;74.78;;;10.23;;
69565;SDS011;56777;55.930;37.524;2024-03-17T07:34:00;59.60;;;8.68;;
69565;SDS011;56777;55.930;37.524;2024-03-17T07:36:25;57.58;;;8.70;;
69565;SDS011;56777;55.930;37.524;2024-03-17T07:38:51;75.13;;;9.73;;
69565;SDS011;56777;55.930;37.524;2024-03-17T07:41:17;72.43;;;9.52;;
69565;SDS011;56777;55.930;37.524;2024-03-17T07:43:44;80.72;;;8.85;;
69565;SDS011;56777;55.930;37.524;2024-03-17T07:46:11;66.85;;;7.13;;
69565;SDS011;56777;55.930;37.524;2024-03-17T07:48:38;86.70;;;9.57;;
69565;SDS011;56777;55.930;37.524;2024-03-17T07:51:05;69.10;;;8.35;;
69565;SDS011;56777;55.930;37.524;2024-03-17T07:53:36;74.50;;;10.48;;
69565;SDS011;56777;55.930;37.524;2024-03-17T07:56:05;59.45;;;7.50;;
69565;SDS011;56777;55.930;37.524;2024-03-17T07:58:34;66.90;;;8.18;;
69565;SDS011;56777;55.930;37.524;2024-03-17T08:01:03;93.55;;;9.43;;
69565;SDS011;56777;55.930;37.524;2024-03-17T08:03:31;63.30;;;9.40;;
69565;SDS011;56777;55.930;37.524;2024-03-17T08:05:57;62.22;;;10.45;;
69565;SDS011;56777;55.930;37.524;2024-03-17T08:08:24;60.33;;;9.45;;
69565;SDS011;56777;55.930;37.524;2024-03-17T08:10:50;60.15;;;8.43;;
69565;SDS011;56777;55.930;37.524;2024-03-17T08:13:16;69.72;;;9.55;;
69565;SDS011;56777;55.930;37.524;2024-03-17T08:15:43;68.55;;;9.15;;
69565;SDS011;56777;55.930;37.524;2024-03-17T08:18:09;70.90;;;8.40;;
69565;SDS011;56777;55.930;37.524;2024-03-17T08:20:42;67.85;;;9.82;;
69565;SDS011;56777;55.930;37.524;2024-03-17T08:23:08;64.72;;;10.23;;
69565;SDS011;56777;55.930;37.524;2024-03-17T08:25:36;66.90;;;8.63;;
69565;SDS011;56777;55.930;37.524;2024-03-17T08:28:01;72.35;;;9.00;;
69565;SDS011;56777;55.930;37.524;2024-03-17T08:30:29;70.65;;;8.75;;
69565;SDS011;56777;55.930;37.524;2024-03-17T08:32:57;75.65;;;8.90;;
69565;SDS011;56777;55.930;37.524;2024-03-17T08:35:23;60.35;;;8.45;;
69565;SDS011;56777;55.930;37.524;2024-03-17T08:37:49;67.82;;;11.00;;
69565;SDS011;56777;55.930;37.524;2024-03-17T08:40:16;61.55;;;8.30;;
69565;SDS011;56777;55.930;37.524;2024-03-17T08:42:42;65.20;;;10.40;;
69565;SDS011;56777;55.930;37.524;2024-03-17T08:45:09;82.47;;;10.73;;
69565;SDS011;56777;55.930;37.524;2024-03-17T08:47:35;70.32;;;9.32;;
69565;SDS011;56777;55.930;37.524;2024-03-17T08:50:01;60.13;;;10.18;;
69565;SDS011;56777;55.930;37.524;2024-03-17T08:52:29;80.78;;;12.43;;
69565;SDS011;56777;55.930;37.524;2024-03-17T08:54:57;68.38;;;12.93;;
69565;SDS011;56777;55.930;37.524;2024-03-17T08:57:23;82.60;;;12.70;;
69565;SDS011;56777;55.930;37.524;2024-03-17T08:59:48;75.28;;;10.10;;
69565;SDS011;56777;55.930;37.524;2024-03-17T09:02:14;72.07;;;9.90;;
69565;SDS011;56777;55.930;37.524;2024-03-17T09:04:42;73.57;;;9.32;;
69565;SDS011;56777;55.930;37.524;2024-03-17T09:07:08;64.00;;;9.27;;
69565;SDS011;56777;55.930;37.524;2024-03-17T09:09:34;66.00;;;9.20;;
69565;SDS011;56777;55.930;37.524;2024-03-17T09:11:59;75.68;;;11.80;;
69565;SDS011;56777;55.930;37.524;2024-03-17T09:14:25;70.07;;;10.05;;
69565;SDS011;56777;55.930;37.524;2024-03-17T09:16:50;60.75;;;9.18;;
69565;SDS011;56777;55.930;37.524;2024-03-17T09:19:16;62.15;;;10.25;;
69565;SDS011;56777;55.930;37.524;2024-03-17T09:21:41;75.93;;;11.63;;
69565;SDS011;56777;55.930;37.524;2024-03-17T09:24:08;66.00;;;9.77;;
69565;SDS011;56777;55.930;37.524;2024-03-17T09:26:34;67.82;;;9.93;;
69565;SDS011;56777;55.930;37.524;2024-03-17T09:29:00;59.13;;;8.68;;
69565;SDS011;56777;55.930;37.524;2024-03-17T09:31:26;71.18;;;10.13;;
69565;SDS011;56777;55.930;37.524;2024-03-17T09:33:52;75.45;;;9.98;;
69565;SDS011;56777;55.930;37.524;2024-03-17T09:36:18;69.05;;;9.32;;
69565;SDS011;56777;55.930;37.524;2024-03-17T09:38:44;67.07;;;9.75;;
69565;SDS011;56777;55.930;37.524;2024-03-17T09:41:21;71.97;;;9.55;;
69565;SDS011;56777;55.930;37.524;2024-03-17T09:43:50;54.70;;;9.05;;
69565;SDS011;56777;55.930;37.524;2024-03-17T09:46:18;63.78;;;9.68;;
69565;SDS011;56777;55.930;37.524;2024-03-17T09:48:46;58.38;;;9.55;;
69565;SDS011;56777;55.930;37.524;2024-03-17T09:51:19;49.97;;;8.23;;
69565;SDS011;56777;55.930;37.524;2024-03-17T09:53:49;54.50;;;9.85;;
69565;SDS011;56777;55.930;37.524;2024-03-17T09:56:16;57.67;;;9.00;;
69565;SDS011;56777;55.930;37.524;2024-03-17T09:58:50;65.78;;;12.02;;
69565;SDS011;56777;55.930;37.524;2024-03-17T10:01:16;60.83;;;9.20;;
69565;SDS011;56777;55.930;37.524;2024-03-17T10:03:49;66.78;;;9.20;;
69565;SDS011;56777;55.930;37.524;2024-03-17T10:06:19;59.10;;;11.07;;
69565;SDS011;56777;55.930;37.524;2024-03-17T10:08:50;57.35;;;8.43;;
69565;SDS011;56777;55.930;37.524;2024-03-17T10:11:37;57.42;;;8.13;;
69565;SDS011;56777;55.930;37.524;2024-03-17T10:14:06;59.70;;;9.32;;
69565;SDS011;56777;55.930;37.524;2024-03-17T10:16:34;62.22;;;9.73;;
69565;SDS011;56777;55.930;37.524;2024-03-17T10:19:10;60.72;;;8.80;;
69565;SDS011;56777;55.930;37.524;2024-03-17T10:21:49;58.80;;;9.27;;
69565;SDS011;56777;55.930;37.524;2024-03-17T10:24:23;62.28;;;8.68;;
69565;SDS011;56777;55.930;37.524;2024-03-17T10:26:53;56.10;;;9.32;;
69565;SDS011;56777;55.930;37.524;2024-03-17T10:29:21;80.63;;;9.00;;
69565;SDS011;56777;55.930;37.524;2024-03-17T10:31:58;59.35;;;8.98;;
69565;SDS011;56777;55.930;37.524;2024-03-17T10:34:44;67.82;;;10.27;;
69565;SDS011;56777;55.930;37.524;2024-03-17T10:37:15;58.85;;;9.65;;
69565;SDS011;56777;55.930;37.524;2024-03-17T10:39:53;68.15;;;9.35;;
69565;SDS011;56777;55.930;37.524;2024-03-17T10:42:24;61.35;;;9.65;;
69565;SDS011;56777;55.930;37.524;2024-03-17T10:47:21;78.38;;;9.90;;
69565;SDS011;56777;55.930;37.524;2024-03-17T10:49:51;60.28;;;9.55;;
69565;SDS011;56777;55.930;37.524;2024-03-17T10:52:19;56.17;;;9.45;;
69565;SDS011;56777;55.930;37.524;2024-03-17T10:54:49;60.15;;;8.77;;
69565;SDS011;56777;55.930;37.524;2024-03-17T11:00:10;66.03;;;9.82;;
69565;SDS011;56777;55.930;37.524;2024-03-17T11:02:42;66.07;;;11.10;;
69565;SDS011;56777;55.930;37.524;2024-03-17T11:05:15;65.82;;;10.93;;
69565;SDS011;56777;55.930;37.524;2024-03-17T11:07:42;68.35;;;10.98;;
69565;SDS011;56777;55.930;37.524;2024-03-17T11:10:16;63.55;;;9.77;;
69565;SDS011;56777;55.930;37.524;2024-03-17T11:17:51;65.05;;;11.20;;
69565;SDS011;56777;55.930;37.524;2024-03-17T11:22:51;73.95;;;10.52;;
69565;SDS011;56777;55.930;37.524;2024-03-17T11:27:51;72.10;;;11.82;;
69565;SDS011;56777;55.930;37.524;2024-03-17T11:38:55;72.78;;;10.07;;
69565;SDS011;56777;55.930;37.524;2024-03-17T11:41:41;60.83;;;10.18;;
69565;SDS011;56777;55.930;37.524;2024-03-17T11:51:54;64.47;;;9.65;;
69565;SDS011;56777;55.930;37.524;2024-03-17T11:54:21;65.75;;;10.02;;
69565;SDS011;56777;55.930;37.524;2024-03-17T11:56:49;90.38;;;11.02;;
69565;SDS011;56777;55.930;37.524;2024-03-17T11:59:17;89.55;;;12.18;;
69565;SDS011;56777;55.930;37.524;2024-03-17T12:01:44;70.97;;;11.13;;
69565;SDS011;56777;55.930;37.524;2024-03-17T12:04:16;71.15;;;10.80;;
69565;SDS011;56777;55.930;37.524;2024-03-17T12:06:44;85.63;;;10.82;;
69565;SDS011;56777;55.930;37.524;2024-03-17T12:12:01;72.53;;;11.27;;
69565;SDS011;56777;55.930;37.524;2024-03-17T12:14:35;70.38;;;11.93;;
69565;SDS011;56777;55.930;37.524;2024-03-17T12:17:08;72.50;;;12.45;;
69565;SDS011;56777;55.930;37.524;2024-03-17T12:19:35;86.60;;;13.45;;
69565;SDS011;56777;55.930;37.524;2024-03-17T12:22:03;70.15;;;11.13;;
69565;SDS011;56777;55.930;37.524;2024-03-17T12:24:30;70.40;;;10.98;;
69565;SDS011;56777;55.930;37.524;2024-03-17T12:26:58;67.10;;;11.48;;
69565;SDS011;56777;55.930;37.524;2024-03-17T12:29:31;73.57;;;11.65;;
69565;SDS011;56777;55.930;37.524;2024-03-17T12:32:14;75.55;;;11.05;;
69565;SDS011;56777;55.930;37.524;2024-03-17T12:34:45;75.68;;;11.20;;
69565;SDS011;56777;55.930;37.524;2024-03-17T12:37:30;85.80;;;12.73;;
69565;SDS011;56777;55.930;37.524;2024-03-17T12:40:02;91.32;;;12.95;;
69565;SDS011;56777;55.930;37.524;2024-03-17T12:42:28;76.95;;;10.90;;
69565;SDS011;56777;55.930;37.524;2024-03-17T12:44:59;85.68;;;11.15;;
69565;SDS011;56777;55.930;37.524;2024-03-17T12:47:27;83.60;;;12.05;;
69565;SDS011;56777;55.930;37.524;2024-03-17T12:49:54;73.93;;;10.15;;
69565;SDS011;56777;55.930;37.524;2024-03-17T12:52:24;78.32;;;11.45;;
69565;SDS011;56777;55.930;37.524;2024-03-17T12:55:03;76.65;;;12.45;;
69565;SDS011;56777;55.930;37.524;2024-03-17T12:57:47;56.55;;;9.75;;
69565;SDS011;56777;55.930;37.524;2024-03-17T13:00:36;69.32;;;11.38;;
69565;SDS011;56777;55.930;37.524;2024-03-17T13:03:03;87.43;;;11.48;;
69565;SDS011;56777;55.930;37.524;2024-03-17T13:05:35;73.53;;;11.48;;
69565;SDS011;56777;55.930;37.524;2024-03-17T13:08:01;70.40;;;10.98;;
69565;SDS011;56777;55.930;37.524;2024-03-17T13:10:28;78.03;;;12.43;;
69565;SDS011;56777;55.930;37.524;2024-03-17T13:13:02;66.45;;;11.23;;
69565;SDS011;56777;55.930;37.524;2024-03-17T13:15:29;77.93;;;12.80;;
69565;SDS011;56777;55.930;37.524;2024-03-17T13:17:56;59.92;;;11.68;;
69565;SDS011;56777;55.930;37.524;2024-03-17T13:20:23;68.60;;;10.48;;
69565;SDS011;56777;55.930;37.524;2024-03-17T13:22:49;72.05;;;10.77;;
69565;SDS011;56777;55.930;37.524;2024-03-17T13:25:16;65.25;;;9.98;;
69565;SDS011;56777;55.930;37.524;2024-03-17T13:27:45;71.78;;;11.25;;
69565;SDS011;56777;55.930;37.524;2024-03-17T13:30:13;68.55;;;11.90;;
69565;SDS011;56777;55.930;37.524;2024-03-17T13:32:40;73.68;;;16.27;;
69565;SDS011;56777;55.930;37.524;2024-03-17T13:35:21;78.57;;;14.27;;
69565;SDS011;56777;55.930;37.524;2024-03-17T13:37:49;81.28;;;12.85;;
69565;SDS011;56777;55.930;37.524;2024-03-17T13:40:15;72.05;;;11.15;;
69565;SDS011;56777;55.930;37.524;2024-03-17T13:42:46;70.72;;;11.50;;
69565;SDS011;56777;55.930;37.524;2024-03-17T13:45:14;71.93;;;11.43;;
69565;SDS011;56777;55.930;37.524;2024-03-17T13:47:40;63.88;;;11.65;;
69565;SDS011;56777;55.930;37.524;2024-03-17T13:50:06;77.07;;;16.75;;
69565;SDS011;56777;55.930;37.524;2024-03-17T13:52:39;59.17;;;10.88;;
69565;SDS011;56777;55.930;37.524;2024-03-17T13:55:16;61.38;;;11.13;;
69565;SDS011;56777;55.930;37.524;2024-03-17T13:57:51;76.70;;;15.10;;
69565;SDS011;56777;55.930;37.524;2024-03-17T14:00:22;66.55;;;11.90;;
69565;SDS011;56777;55.930;37.524;2024-03-17T14:02:51;66.70;;;12.75;;
69565;SDS011;56777;55.930;37.524;2024-03-17T14:05:18;69.28;;;16.35;;
69565;SDS011;56777;55.930;37.524;2024-03-17T14:07:47;58.17;;;9.65;;
69565;SDS011;56777;55.930;37.524;2024-03-17T14:10:14;66.40;;;12.32;;
69565;SDS011;56777;55.930;37.524;2024-03-17T14:12:42;67.63;;;14.82;;
69565;SDS011;56777;55.930;37.524;2024-03-17T14:15:10;60.28;;;12.77;;
69565;SDS011;56777;55.930;37.524;2024-03-17T14:17:39;64.05;;;14.48;;
69565;SDS011;56777;55.930;37.524;2024-03-17T14:20:09;82.38;;;17.92;;
69565;SDS011;56777;55.930;37.524;2024-03-17T14:22:41;65.13;;;11.98;;
69565;SDS011;56777;55.930;37.524;2024-03-17T14:25:17;56.38;;;11.07;;
69565;SDS011;56777;55.930;37.524;2024-03-17T14:27:43;69.80;;;11.40;;
69565;SDS011;56777;55.930;37.524;2024-03-17T14:30:10;69.28;;;11.80;;
69565;SDS011;56777;55.930;37.524;2024-03-17T14:32:40;70.22;;;11.35;;
69565;SDS011;56777;55.930;37.524;2024-03-17T14:35:06;58.70;;;9.60;;
69565;SDS011;56777;55.930;37.524;2024-03-17T14:37:38;61.33;;;9.73;;
69565;SDS011;56777;55.930;37.524;2024-03-17T14:40:06;68.18;;;9.85;;
69565;SDS011;56777;55.930;37.524;2024-03-17T14:42:39;69.18;;;10.10;;
69565;SDS011;56777;55.930;37.524;2024-03-17T14:45:06;68.63;;;10.75;;
69565;SDS011;56777;55.930;37.524;2024-03-17T14:47:33;70.50;;;11.25;;
69565;SDS011;56777;55.930;37.524;2024-03-17T14:49:58;64.30;;;9.60;;
69565;SDS011;56777;55.930;37.524;2024-03-17T14:52:25;81.95;;;11.43;;